Time;durP1;ratioP1;P1;durP2;ratioP2;P2;SDS_P1;SDS_P2;PMS_P1;PMS_P2;Temp;Humidity;BMP_temperature;BMP_pressure;BME280_temperature;BME280_humidity;BME280_pressure;Samples;Min_cycle;Max_cycle;Signal;HPM_P1;HPM_P2
2023/12/06 00:02:43;;;;;;;49.30;23.85;;;;;;;1.01;81.49;97439.44;10410692;28;20410;-49
2023/12/06 00:07:42;;;;;;;52.70;26.30;;;;;;;0.64;81.63;97433.19;10410767;28;20291;-49
2023/12/06 00:12:41;;;;;;;53.55;26.95;;;;;;;0.75;82.12;97462.47;10411188;28;20107;-49
2023/12/06 00:17:41;;;;;;;54.00;28.38;;;;;;;0.50;82.39;97426.75;10409933;28;20029;-49
2023/12/06 00:22:39;;;;;;;;;;;;;;;0.74;82.36;97453.09;10411167;28;20127;-49
2023/12/06 00:27:38;;;;;;;65.25;29.40;;;;;;;0.58;82.42;97397.25;10409865;28;19948;-49
2023/12/06 00:32:37;;;;;;;56.00;28.52;;;;;;;0.93;82.09;97448.59;10409776;28;20031;-49
2023/12/06 00:37:36;;;;;;;65.53;28.95;;;;;;;0.62;82.22;97386.31;10409856;28;20036;-49
2023/12/06 00:42:35;;;;;;;;;;;;;;;0.99;82.00;97435.97;10450900;28;20187;-49
2023/12/06 00:47:34;;;;;;;68.05;32.22;;;;;;;0.80;82.20;97425.22;10450323;28;19912;-49
2023/12/06 00:52:33;;;;;;;59.08;28.95;;;;;;;0.66;82.38;97411.09;10451518;28;20102;-48
2023/12/06 00:57:32;;;;;;;61.10;29.67;;;;;;;0.40;82.42;97366.88;10448294;28;20032;-49
2023/12/06 01:02:31;;;;;;;59.05;30.67;;;;;;;0.61;82.19;97402.44;10420192;28;20063;-49
2023/12/06 01:07:30;;;;;;;61.65;30.80;;;;;;;0.64;82.19;97428.94;10409098;28;20079;-49
2023/12/06 01:12:29;;;;;;;60.88;29.55;;;;;;;0.53;81.88;97403.88;10408400;28;20139;-49
2023/12/06 01:17:28;;;;;;;63.00;29.77;;;;;;;0.53;82.42;97416.66;10408457;28;20244;-48
2023/12/06 01:22:26;;;;;;;58.63;27.23;;;;;;;0.39;82.33;97391.53;10408421;28;20136;-48
2023/12/06 01:27:25;;;;;;;55.40;27.42;;;;;;;0.55;82.06;97392.03;10408117;28;20115;-49
2023/12/06 01:32:24;;;;;;;56.28;27.17;;;;;;;0.39;82.08;97355.78;10408307;28;20032;-49
2023/12/06 01:37:25;;;;;;;67.90;30.48;;;;;;;0.60;81.69;97391.34;10407815;28;20135;-49
2023/12/06 01:42:23;;;;;;;63.05;29.13;;;;;;;0.25;81.61;97341.72;10407918;28;20111;-49
2023/12/06 01:47:25;;;;;;;55.78;26.67;;;;;;;0.30;81.59;97355.50;10406656;28;20048;-48
2023/12/06 01:52:24;;;;;;;58.55;28.85;;;;;;;0.36;81.72;97339.50;10407748;28;20048;-49
2023/12/06 01:57:23;;;;;;;60.05;28.52;;;;;;;0.33;82.58;97359.81;10410853;28;20119;-49
2023/12/06 02:02:22;;;;;;;63.30;28.52;;;;;;;0.02;81.96;97308.66;10416132;28;20091;-50
2023/12/06 02:07:22;;;;;;;63.53;27.95;;;;;;;0.23;82.33;97343.34;10416244;28;20064;-49
2023/12/06 02:12:21;;;;;;;60.67;27.33;;;;;;;0.39;83.19;97386.44;10414828;28;20059;-49
2023/12/06 02:17:20;;;;;;;60.15;28.00;;;;;;;0.27;82.65;97345.19;10414485;28;20031;-49
2023/12/06 02:22:21;;;;;;;56.33;26.70;;;;;;;0.39;82.72;97376.22;10414096;28;20032;-48
2023/12/06 02:27:21;;;;;;;57.67;26.98;;;;;;;0.24;83.10;97378.25;10414884;28;20056;-48
2023/12/06 02:32:20;;;;;;;64.38;29.63;;;;;;;0.05;83.49;97348.72;10414500;28;20059;-49
2023/12/06 02:37:22;;;;;;;51.47;26.90;;;;;;;-0.09;83.46;97279.38;10413847;28;20024;-49
2023/12/06 02:42:21;;;;;;;53.92;26.73;;;;;;;0.46;83.34;97352.63;10414312;28;20511;-49
2023/12/06 02:47:21;;;;;;;63.40;29.67;;;;;;;0.44;83.35;97330.41;10413522;28;20194;-48
2023/12/06 02:52:20;;;;;;;57.22;26.60;;;;;;;0.44;82.83;97307.44;10413018;28;20070;-49
2023/12/06 02:57:19;;;;;;;50.33;26.23;;;;;;;0.64;82.90;97328.50;10413399;28;20060;-49
2023/12/06 03:02:17;;;;;;;64.43;28.63;;;;;;;0.71;82.53;97322.75;10412605;28;20023;-49
2023/12/06 03:07:16;;;;;;;58.03;27.42;;;;;;;0.48;82.71;97282.06;10411166;28;20119;-49
2023/12/06 03:12:15;;;;;;;52.70;23.90;;;;;;;0.90;82.28;97316.53;10412601;28;20119;-50
2023/12/06 03:17:14;;;;;;;53.38;23.50;;;;;;;0.87;81.81;97313.84;10411563;28;20105;-50
2023/12/06 03:22:13;;;;;;;52.05;24.52;;;;;;;0.81;81.64;97304.34;10411560;28;20036;-49
2023/12/06 03:27:14;;;;;;;46.45;23.83;;;;;;;0.58;81.54;97264.47;10411331;28;20127;-49
2023/12/06 03:32:13;;;;;;;55.65;27.27;;;;;;;0.79;81.42;97305.97;10431306;28;20087;-49
2023/12/06 03:37:12;;;;;;;57.05;25.95;;;;;;;0.97;80.81;97330.34;10415180;28;20402;-49
2023/12/06 03:42:11;;;;;;;57.15;26.85;;;;;;;0.86;81.27;97338.53;10412129;28;20021;-49
2023/12/06 03:47:10;;;;;;;48.92;24.42;;;;;;;0.97;81.16;97330.34;10411942;28;20052;-49
2023/12/06 03:52:09;;;;;;;60.63;28.08;;;;;;;0.64;81.71;97310.63;10411390;28;20036;-49
2023/12/06 03:57:08;;;;;;;51.47;26.92;;;;;;;0.64;82.14;97321.72;10412076;28;20070;-50
2023/12/06 04:02:08;;;;;;;45.63;23.52;;;;;;;0.55;81.86;97305.25;10411486;28;20076;-50
2023/12/06 04:07:06;;;;;;;53.05;24.40;;;;;;;0.55;82.22;97323.97;10410585;28;20064;-51
2023/12/06 04:12:06;;;;;;;47.58;22.20;;;;;;;0.65;81.88;97323.41;10411548;28;20027;-50
2023/12/06 04:17:05;;;;;;;45.30;23.45;;;;;;;0.75;81.68;97369.69;10410728;28;20074;-50
2023/12/06 04:22:04;;;;;;;47.30;23.13;;;;;;;0.65;81.89;97337.88;10409216;28;20128;-50
2023/12/06 04:27:03;;;;;;;47.60;22.67;;;;;;;0.60;81.68;97324.97;10410379;28;20037;-50
2023/12/06 04:32:03;;;;;;;49.13;22.45;;;;;;;0.78;81.12;97334.91;10409823;28;20064;-50
2023/12/06 04:37:02;;;;;;;52.00;22.33;;;;;;;1.03;81.46;97381.59;10431394;28;20121;-50
2023/12/06 04:42:01;;;;;;;49.58;25.15;;;;;;;0.91;81.08;97333.56;10451580;28;20063;-50
2023/12/06 04:47:00;;;;;;;53.15;25.58;;;;;;;0.82;80.80;97341.81;10451238;28;20035;-50
2023/12/06 04:52:00;;;;;;;57.42;27.65;;;;;;;0.89;81.03;97358.19;10449265;28;20562;-50
2023/12/06 04:56:59;;;;;;;50.78;25.35;;;;;;;-0.33;80.91;97174.06;10451183;28;20051;-50
2023/12/06 05:01:58;;;;;;;60.90;27.38;;;;;;;-2.18;81.28;96856.56;10450781;28;20390;-50
2023/12/06 05:06:57;;;;;;;64.72;29.40;;;;;;;0.60;81.34;97330.09;10450368;28;20110;-49
2023/12/06 05:11:56;;;;;;;63.85;29.13;;;;;;;0.73;81.41;97351.75;10450627;28;20501;-51
2023/12/06 05:16:55;;;;;;;61.30;29.67;;;;;;;0.71;81.44;97348.31;10409455;28;20051;-50
2023/12/06 05:21:54;;;;;;;55.42;29.27;;;;;;;0.66;81.65;97352.38;10406825;28;20159;-50
2023/12/06 05:26:53;;;;;;;45.15;22.75;;;;;;;0.66;81.56;97344.72;10408006;28;20063;-50
2023/12/06 05:31:52;;;;;;;51.38;25.77;;;;;;;0.29;81.98;97342.69;10407432;28;20032;-50
2023/12/06 05:36:51;;;;;;;47.33;24.10;;;;;;;0.09;82.66;97329.28;10407358;28;20028;-49
2023/12/06 05:41:50;;;;;;;58.70;25.67;;;;;;;-0.38;83.70;97276.72;10408372;28;20094;-49
2023/12/06 05:46:49;;;;;;;53.60;25.55;;;;;;;0.16;83.59;97357.59;10407835;28;20683;-50
2023/12/06 05:51:48;;;;;;;63.67;27.42;;;;;;;0.34;83.66;97375.22;10407769;28;20849;-50
2023/12/06 05:56:47;;;;;;;53.97;27.85;;;;;;;0.50;83.73;97368.03;10409674;28;20064;-51
2023/12/06 06:01:46;;;;;;;53.33;26.55;;;;;;;0.34;83.30;97349.69;10405678;28;20028;-49
2023/12/06 06:06:45;;;;;;;45.42;21.05;;;;;;;0.38;83.12;97374.50;10407101;28;20123;-50
2023/12/06 06:11:44;;;;;;;45.08;22.65;;;;;;;0.24;83.11;97355.28;10407925;28;20025;-50
2023/12/06 06:16:43;;;;;;;41.05;20.05;;;;;;;0.20;83.41;97367.09;10406212;28;20115;-50
2023/12/06 06:21:42;;;;;;;46.63;23.20;;;;;;;0.43;83.34;97392.50;10406685;28;20124;-50
2023/12/06 06:26:41;;;;;;;46.90;23.50;;;;;;;0.53;83.02;97393.69;10404218;28;20060;-49
2023/12/06 06:31:40;;;;;;;53.65;26.08;;;;;;;0.43;83.30;97382.31;10400526;28;20144;-49
2023/12/06 06:36:39;;;;;;;49.38;24.40;;;;;;;0.21;82.71;97344.97;10401973;28;20131;-50
2023/12/06 06:41:39;;;;;;;52.15;26.00;;;;;;;0.51;82.80;97380.84;10397583;28;20148;-49
2023/12/06 06:46:38;;;;;;;55.20;24.05;;;;;;;0.52;83.20;97395.34;10409460;28;20542;-50
2023/12/06 06:51:37;;;;;;;51.25;25.55;;;;;;;0.57;82.79;97400.59;10408283;28;20049;-50
2023/12/06 06:56:37;;;;;;;51.72;22.58;;;;;;;0.41;82.95;97389.03;10408923;28;20123;-50
2023/12/06 07:01:36;;;;;;;53.20;26.20;;;;;;;0.30;83.56;97377.59;10408993;28;20112;-50
2023/12/06 07:06:35;;;;;;;57.17;27.75;;;;;;;0.61;83.03;97361.56;10408921;28;20137;-50
2023/12/06 07:11:34;;;;;;;54.58;24.40;;;;;;;-0.10;82.16;97221.56;10408977;28;20032;-49
2023/12/06 07:16:33;;;;;;;54.15;24.77;;;;;;;0.97;82.14;97371.22;10410243;28;20032;-50
2023/12/06 07:21:32;;;;;;;54.50;26.17;;;;;;;1.35;81.18;97395.34;10408384;28;20051;-50
2023/12/06 07:26:30;;;;;;;62.50;28.73;;;;;;;1.20;80.89;97406.00;10407964;28;20564;-50
2023/12/06 07:31:29;;;;;;;56.40;26.17;;;;;;;1.09;81.39;97366.47;10407776;28;20554;-50
2023/12/06 07:36:29;;;;;;;52.28;25.70;;;;;;;1.23;80.23;97383.06;10407598;28;20056;-50
2023/12/06 07:41:28;;;;;;;51.25;24.20;;;;;;;1.11;79.40;97352.91;10405050;28;20637;-50
2023/12/06 07:46:27;;;;;;;55.22;26.20;;;;;;;0.99;80.11;97347.44;10407832;28;20112;-49
2023/12/06 07:51:25;;;;;;;59.17;27.70;;;;;;;1.36;80.15;97401.31;10406087;28;20123;-50
2023/12/06 07:56:24;;;;;;;53.35;24.55;;;;;;;0.80;79.64;97300.06;10406646;28;20039;-48
2023/12/06 08:01:24;;;;;;;55.10;27.55;;;;;;;1.26;80.20;97385.72;10407621;28;20040;-49
2023/12/06 08:06:23;;;;;;;60.92;28.73;;;;;;;0.95;80.86;97331.97;10406565;28;20056;-50
2023/12/06 08:11:23;;;;;;;59.55;26.70;;;;;;;1.61;81.35;97403.75;10405568;28;20111;-50
2023/12/06 08:16:22;;;;;;;55.53;25.60;;;;;;;1.49;81.16;97373.59;10405506;28;20119;-49
2023/12/06 08:21:21;;;;;;;59.90;28.48;;;;;;;1.80;80.80;97399.16;10405413;28;20056;-52
2023/12/06 08:26:20;;;;;;;62.53;30.33;;;;;;;1.96;79.93;97391.94;10405163;28;20060;-49
2023/12/06 08:31:20;;;;;;;92.75;43.80;;;;;;;1.98;78.92;97357.88;10407795;28;20028;-51
2023/12/06 08:36:19;;;;;;;55.50;27.15;;;;;;;2.25;78.21;97388.41;10406452;28;20140;-50
2023/12/06 08:41:18;;;;;;;60.55;28.60;;;;;;;1.93;77.69;97334.72;10407167;28;20033;-50
2023/12/06 08:46:18;;;;;;;;;;;;;;;2.42;77.22;97392.28;10407829;28;20829;-50
2023/12/06 08:51:17;;;;;;;49.90;26.80;;;;;;;2.09;78.39;97370.13;10405459;28;20371;-50
2023/12/06 08:56:16;;;;;;;51.75;24.77;;;;;;;2.24;79.11;97355.97;10405493;28;20742;-49
2023/12/06 09:01:15;;;;;;;50.03;24.10;;;;;;;2.75;77.67;97376.00;10405643;28;20036;-49
2023/12/06 09:06:14;;;;;;;40.88;20.88;;;;;;;2.72;76.81;97328.13;10404372;28;20036;-51
2023/12/06 09:11:19;;;;;;;51.38;25.70;;;;;;;2.91;74.98;97344.78;10406695;28;20115;-50
2023/12/06 09:16:19;;;;;;;50.38;24.58;;;;;;;3.05;75.09;97346.75;10405098;28;20123;-51
2023/12/06 09:21:19;;;;;;;48.25;25.10;;;;;;;3.40;74.77;97352.63;10401914;28;20194;-50
2023/12/06 09:26:19;;;;;;;45.60;22.75;;;;;;;3.58;73.55;97331.63;10403567;28;20124;-50
2023/12/06 09:31:18;;;;;;;48.78;24.13;;;;;;;3.15;71.21;97248.72;10394684;28;20210;-50
2023/12/06 09:36:17;;;;;;;50.67;25.63;;;;;;;3.55;71.77;97336.72;10399609;28;20128;-51
2023/12/06 09:41:16;;;;;;;45.60;22.40;;;;;;;3.12;71.33;97323.88;10404833;28;20044;-50
2023/12/06 09:46:16;;;;;;;45.53;24.50;;;;;;;3.01;72.83;97300.56;10402589;28;20441;-50
2023/12/06 09:51:17;;;;;;;47.25;23.50;;;;;;;3.21;72.17;97318.06;10401575;28;20119;-50
2023/12/06 09:56:17;;;;;;;47.78;22.65;;;;;;;2.99;72.57;97307.34;10403222;28;20127;-49
2023/12/06 10:01:15;;;;;;;42.60;21.92;;;;;;;2.89;74.06;97269.56;10401957;28;20108;-50
2023/12/06 10:06:16;;;;;;;42.47;21.80;;;;;;;3.15;72.89;97253.84;10406177;28;20037;-50
2023/12/06 10:11:14;;;;;;;39.15;20.70;;;;;;;3.44;70.51;97311.69;10397249;28;20121;-49
2023/12/06 10:16:15;;;;;;;43.33;23.67;;;;;;;3.58;72.78;97308.53;10401312;28;20024;-50
2023/12/06 10:21:14;;;;;;;42.55;22.17;;;;;;;3.49;72.35;97287.84;10408101;28;20127;-50
2023/12/06 10:26:16;;;;;;;46.42;23.33;;;;;;;3.29;72.62;97267.81;10412194;28;20082;-50
2023/12/06 10:31:15;;;;;;;39.53;21.90;;;;;;;3.44;71.57;97296.28;10409251;28;20111;-50
2023/12/06 10:36:14;;;;;;;37.03;20.33;;;;;;;3.13;73.41;97243.56;10411200;28;20033;-50
2023/12/06 10:41:16;;;;;;;38.20;20.05;;;;;;;3.12;73.40;97240.94;10409813;28;21058;-50
2023/12/06 10:46:17;;;;;;;38.92;22.63;;;;;;;3.65;73.96;97265.06;10410477;28;20155;-50
2023/12/06 10:51:17;;;;;;;38.38;20.50;;;;;;;3.89;73.22;97283.44;10406942;28;20191;-50
2023/12/06 10:56:18;;;;;;;96.72;38.95;;;;;;;3.72;71.35;97283.13;10407882;28;20549;-49
2023/12/06 11:01:18;;;;;;;40.22;22.15;;;;;;;3.51;73.72;97293.88;10409434;28;20115;-50
2023/12/06 11:06:35;;;;;;;;;;;;;;;3.68;74.28;97296.75;10410558;28;20112;-49
2023/12/06 11:12:01;;;;;;;36.63;20.63;;;;;;;3.59;74.37;97292.31;10408875;28;20007;-50
2023/12/06 11:17:13;;;;;;;30.73;16.98;;;;;;;3.94;73.77;97268.97;10407966;28;20128;-50
2023/12/06 11:22:12;;;;;;;31.60;18.38;;;;;;;3.94;73.52;97233.03;10409368;28;20917;-49
2023/12/06 11:27:12;;;;;;;51.75;33.15;;;;;;;3.76;71.86;97256.69;10408526;28;20135;-51
2023/12/06 11:32:14;;;;;;;;;;;;;;;4.19;72.15;97278.81;10406312;28;20048;-50
2023/12/06 11:37:19;;;;;;;31.10;19.50;;;;;;;4.17;72.23;97239.41;10410352;28;20003;-50
2023/12/06 11:42:18;;;;;;;49.95;26.77;;;;;;;4.20;72.11;97231.78;10404956;28;20152;-50
2023/12/06 11:47:24;;;;;;;42.42;23.52;;;;;;;4.09;71.59;97264.09;10400956;28;20610;-50
2023/12/06 11:52:23;;;;;;;36.58;20.73;;;;;;;3.61;72.72;97188.00;10404400;28;20058;-50
2023/12/06 11:57:22;;;;;;;37.13;20.45;;;;;;;3.90;71.51;97241.53;10403091;28;20770;-50
2023/12/06 12:02:21;;;;;;;33.40;19.05;;;;;;;3.73;73.19;97256.63;10405188;28;20734;-50
2023/12/06 12:07:21;;;;;;;40.28;20.15;;;;;;;3.41;74.22;97242.38;10407283;28;20116;-49
2023/12/06 12:12:20;;;;;;;40.67;22.40;;;;;;;3.49;75.08;97257.06;10402906;28;20485;-50
2023/12/06 12:17:19;;;;;;;40.72;24.08;;;;;;;2.97;75.86;97180.00;10407083;28;20500;-50
2023/12/06 12:22:18;;;;;;;41.58;23.05;;;;;;;2.46;76.25;97097.00;10404556;28;20060;-49
2023/12/06 12:27:19;;;;;;;41.03;23.10;;;;;;;3.39;77.39;97268.84;10406326;28;20120;-50
2023/12/06 12:32:18;;;;;;;47.00;26.05;;;;;;;3.15;77.87;97246.16;10403684;28;20116;-49
2023/12/06 12:37:17;;;;;;;40.58;22.27;;;;;;;2.65;79.12;97199.84;10407638;28;20099;-49
2023/12/06 12:42:16;;;;;;;49.22;28.30;;;;;;;2.94;79.19;97214.13;10408310;28;20048;-50
2023/12/06 12:47:15;;;;;;;38.90;21.40;;;;;;;3.30;79.53;97245.59;10408345;28;20035;-49
2023/12/06 12:52:15;;;;;;;40.17;22.20;;;;;;;3.34;80.12;97232.84;10407723;28;20047;-49
2023/12/06 12:57:14;;;;;;;40.88;21.23;;;;;;;3.51;80.84;97233.16;10400644;28;20174;-50
2023/12/06 13:02:13;;;;;;;47.97;27.33;;;;;;;3.69;80.75;97273.69;10411906;28;20609;-50
2023/12/06 13:07:15;;;;;;;48.78;29.58;;;;;;;3.45;79.41;97238.19;10405941;28;20134;-49
2023/12/06 13:12:14;;;;;;;52.45;27.05;;;;;;;2.89;79.80;97174.72;10405002;28;20483;-49
2023/12/06 13:17:13;;;;;;;47.55;25.92;;;;;;;2.97;80.33;97244.94;10404519;28;20402;-49
2023/12/06 13:22:12;;;;;;;47.15;24.48;;;;;;;2.70;81.10;97208.47;10406087;28;20040;-49
2023/12/06 13:27:12;;;;;;;49.60;27.20;;;;;;;3.06;81.30;97269.03;10407015;28;20064;-50
2023/12/06 13:32:13;;;;;;;49.17;26.92;;;;;;;3.04;81.73;97278.41;10424498;28;20048;-49
2023/12/06 13:37:13;;;;;;;45.20;26.48;;;;;;;2.49;81.26;97196.97;10403817;28;20051;-50
2023/12/06 13:42:13;;;;;;;;;;;;;;;2.82;81.67;97283.06;10407171;28;20072;-49
2023/12/06 13:47:12;;;;;;;63.47;37.97;;;;;;;2.72;82.56;97263.19;10406044;28;19947;-51
2023/12/06 13:52:12;;;;;;;68.05;40.03;;;;;;;2.83;83.38;97287.34;10405854;28;20071;-49
2023/12/06 13:57:11;;;;;;;53.38;28.90;;;;;;;2.19;83.30;97186.91;10414646;28;20220;-51
2023/12/06 14:02:13;;;;;;;59.45;28.35;;;;;;;2.21;83.64;97192.94;10413746;28;20695;-51
2023/12/06 14:07:13;;;;;;;57.50;30.42;;;;;;;2.86;83.84;97313.03;10412408;28;20122;-50
2023/12/06 14:12:12;;;;;;;62.42;37.03;;;;;;;2.77;83.92;97285.53;10413975;28;20131;-50
2023/12/06 14:17:11;;;;;;;52.15;29.58;;;;;;;2.44;84.45;97221.63;10414094;28;20115;-50
2023/12/06 14:22:10;;;;;;;54.10;30.15;;;;;;;2.79;84.47;97275.28;10412704;28;20064;-50
2023/12/06 14:27:09;;;;;;;51.90;29.40;;;;;;;2.64;84.50;97283.50;10412389;28;20483;-50
2023/12/06 14:32:08;;;;;;;73.07;37.17;;;;;;;2.38;84.75;97255.63;10411450;28;20521;-52
2023/12/06 14:37:07;;;;;;;50.15;27.30;;;;;;;2.43;84.44;97285.59;10410551;28;20883;-50
2023/12/06 14:42:06;;;;;;;59.25;32.55;;;;;;;2.46;85.21;97301.88;10412170;28;20463;-50
2023/12/06 14:47:05;;;;;;;107.25;59.15;;;;;;;2.41;84.84;97277.00;10410681;28;20111;-50
2023/12/06 14:52:04;;;;;;;65.00;35.80;;;;;;;2.42;85.79;97273.59;10413763;28;20757;-49
2023/12/06 14:57:04;;;;;;;62.83;34.05;;;;;;;2.64;85.87;97296.31;10413082;28;20124;-50
2023/12/06 15:02:03;;;;;;;67.55;33.53;;;;;;;2.42;85.40;97271.94;10409804;28;20119;-50
2023/12/06 15:07:02;;;;;;;73.35;39.92;;;;;;;2.69;85.47;97293.88;10409789;28;20070;-49
2023/12/06 15:12:01;;;;;;;63.97;32.55;;;;;;;2.32;85.25;97259.72;10404666;28;20103;-49
2023/12/06 15:17:00;;;;;;;54.00;31.40;;;;;;;2.63;85.54;97298.84;10404822;28;20124;-49
2023/12/06 15:21:59;;;;;;;62.15;33.95;;;;;;;2.51;84.97;97291.75;10406517;28;20128;-49
2023/12/06 15:26:58;;;;;;;59.95;32.08;;;;;;;2.60;85.60;97284.28;10403834;28;20025;-49
2023/12/06 15:31:57;;;;;;;59.67;30.50;;;;;;;2.56;85.80;97301.28;10416238;28;20043;-48
2023/12/06 15:36:57;;;;;;;79.38;44.85;;;;;;;2.56;85.63;97287.63;10406958;28;20047;-49
2023/12/06 15:41:56;;;;;;;87.25;45.33;;;;;;;2.53;85.80;97297.78;10406907;28;20586;-50
2023/12/06 15:46:56;;;;;;;83.30;45.40;;;;;;;2.48;86.05;97295.09;10410062;28;20029;-48
2023/12/06 15:51:55;;;;;;;95.50;55.05;;;;;;;2.23;86.18;97239.03;10408779;28;20052;-49
2023/12/06 15:56:54;;;;;;;105.88;59.90;;;;;;;2.58;86.32;97294.50;10408354;28;20036;-49
2023/12/06 16:01:54;;;;;;;144.70;77.03;;;;;;;2.68;86.11;97307.53;10408375;28;20115;-49
2023/12/06 16:06:53;;;;;;;131.20;67.30;;;;;;;2.67;86.55;97328.81;10407935;28;20120;-49
2023/12/06 16:11:55;;;;;;;126.38;67.20;;;;;;;2.49;86.77;97288.28;10405622;28;20029;-49
2023/12/06 16:16:54;;;;;;;107.35;58.88;;;;;;;2.66;86.65;97297.22;10407881;28;20679;-49
2023/12/06 16:21:52;;;;;;;105.72;60.10;;;;;;;2.47;86.87;97292.53;10407280;28;20602;-49
2023/12/06 16:26:51;;;;;;;106.78;59.20;;;;;;;1.33;87.13;97106.44;10405049;28;20681;-49
2023/12/06 16:31:50;;;;;;;97.03;54.80;;;;;;;2.63;86.83;97325.34;10405094;28;20478;-49
2023/12/06 16:36:50;;;;;;;102.18;55.10;;;;;;;2.64;87.37;97327.06;10404507;28;20383;-49
2023/12/06 16:41:50;;;;;;;84.57;48.63;;;;;;;1.86;86.72;97194.69;10405107;28;20103;-49
2023/12/06 16:46:49;;;;;;;78.03;42.05;;;;;;;2.63;86.84;97332.13;10404639;28;20122;-51
2023/12/06 16:51:47;;;;;;;97.55;50.50;;;;;;;2.32;86.93;97287.88;10404335;28;20103;-50
2023/12/06 16:56:46;;;;;;;104.80;55.95;;;;;;;1.46;86.99;97145.13;10404278;28;20143;-52
2023/12/06 17:01:45;;;;;;;113.50;60.63;;;;;;;2.60;87.92;97330.38;10403851;28;20115;-49
2023/12/06 17:06:44;;;;;;;106.75;56.58;;;;;;;2.59;87.49;97344.88;10406401;28;20115;-50
2023/12/06 17:11:43;;;;;;;99.45;57.05;;;;;;;2.46;87.46;97324.06;10404607;28;20038;-50
2023/12/06 17:16:42;;;;;;;101.68;54.10;;;;;;;1.32;87.69;97173.75;10405259;28;20896;-50
2023/12/06 17:21:41;;;;;;;95.97;52.30;;;;;;;2.25;88.40;97342.34;10405236;28;20052;-50
2023/12/06 17:26:40;;;;;;;106.55;52.60;;;;;;;2.27;87.99;97338.13;10404386;28;20119;-49
2023/12/06 17:31:39;;;;;;;105.60;54.15;;;;;;;2.19;88.35;97344.75;10407007;28;20099;-50
2023/12/06 17:36:39;;;;;;;;;;;;;;;2.23;88.31;97364.47;10405531;28;20483;-49
2023/12/06 17:41:38;;;;;;;97.43;54.03;;;;;;;2.22;88.57;97355.06;10403932;28;20031;-50
2023/12/06 17:46:37;;;;;;;104.95;57.08;;;;;;;2.31;88.19;97368.97;10405678;28;20032;-50
2023/12/06 17:51:36;;;;;;;76.18;41.45;;;;;;;2.35;88.89;97357.97;10407211;28;20040;-49
2023/12/06 17:56:35;;;;;;;84.20;44.28;;;;;;;2.25;88.88;97339.78;10406726;28;20047;-50
2023/12/06 18:01:34;;;;;;;73.05;39.38;;;;;;;2.06;88.59;97308.59;10407641;28;20067;-49
2023/12/06 18:06:33;;;;;;;;;;;;;;;2.29;88.06;97364.63;10407102;28;20060;-50
2023/12/06 18:11:32;;;;;;;80.22;39.10;;;;;;;2.11;88.85;97363.34;10406789;28;20002;-50
2023/12/06 18:16:31;;;;;;;88.47;46.05;;;;;;;2.00;88.98;97334.06;10406816;28;20028;-50
2023/12/06 18:21:30;;;;;;;98.68;52.15;;;;;;;2.12;88.99;97356.53;10406384;28;20140;-49
2023/12/06 18:26:29;;;;;;;97.57;50.08;;;;;;;2.16;89.19;97337.84;10406501;28;20798;-50
2023/12/06 18:31:28;;;;;;;86.60;45.83;;;;;;;2.18;88.50;97336.19;10406799;28;20650;-50
2023/12/06 18:36:26;;;;;;;77.30;36.42;;;;;;;2.36;88.52;97357.13;10406045;28;20525;-49
2023/12/06 18:41:25;;;;;;;62.33;29.65;;;;;;;1.95;87.85;97317.72;10412394;28;20491;-50
2023/12/06 18:46:24;;;;;;;61.25;28.58;;;;;;;2.22;88.83;97366.16;10407938;28;20486;-50
2023/12/06 18:51:23;;;;;;;56.35;25.88;;;;;;;2.14;89.05;97371.09;10410512;28;20028;-50
2023/12/06 18:56:23;;;;;;;59.38;27.85;;;;;;;2.16;88.81;97348.97;10414637;28;20035;-49
2023/12/06 19:01:22;;;;;;;60.65;27.25;;;;;;;2.13;88.93;97343.75;10410330;28;20119;-50
2023/12/06 19:06:21;;;;;;;56.55;24.88;;;;;;;2.13;89.14;97333.50;10411643;28;20105;-49
2023/12/06 19:11:20;;;;;;;69.85;30.63;;;;;;;2.28;89.16;97348.41;10413169;28;20072;-50
2023/12/06 19:16:19;;;;;;;69.38;30.60;;;;;;;2.37;89.24;97365.66;10412117;28;20028;-50
2023/12/06 19:21:18;;;;;;;78.28;35.65;;;;;;;2.35;89.34;97332.38;10412211;28;20072;-52
2023/12/06 19:26:17;;;;;;;78.78;38.35;;;;;;;2.03;88.68;97270.13;10411797;28;20115;-51
2023/12/06 19:31:17;;;;;;;80.75;40.45;;;;;;;2.24;88.95;97300.50;10412013;28;20036;-52
2023/12/06 19:36:16;;;;;;;;;;;;;;;2.72;88.99;97370.78;10409850;28;20691;-49
2023/12/06 19:41:15;;;;;;;88.07;38.15;;;;;;;2.36;88.61;97305.91;10410326;28;20384;-51
2023/12/06 19:46:14;;;;;;;;;;;;;;;2.71;88.36;97369.94;10407602;28;20115;-51
2023/12/06 19:51:13;;;;;;;100.90;47.28;;;;;;;2.32;88.95;97295.56;10408290;28;20027;-49
2023/12/06 19:56:12;;;;;;;148.40;76.45;;;;;;;2.82;88.62;97372.75;10409642;28;20056;-49
2023/12/06 20:01:11;;;;;;;76.63;36.83;;;;;;;2.74;88.01;97358.88;10408994;28;20050;-49
2023/12/06 20:06:10;;;;;;;89.15;43.45;;;;;;;2.47;88.18;97303.63;10408346;28;20457;-50
2023/12/06 20:11:09;;;;;;;135.48;69.18;;;;;;;2.70;88.11;97331.44;10409481;28;20040;-50
2023/12/06 20:16:08;;;;;;;95.68;46.50;;;;;;;2.69;88.34;97345.09;10408199;28;20029;-48
2023/12/06 20:21:07;;;;;;;93.47;49.30;;;;;;;2.56;87.92;97323.47;10409568;28;20079;-50
2023/12/06 20:26:06;;;;;;;93.57;46.40;;;;;;;2.56;89.12;97373.00;10449922;28;20036;-50
2023/12/06 20:31:05;;;;;;;110.18;52.70;;;;;;;2.42;88.68;97360.66;10448847;28;20456;-50
2023/12/06 20:36:04;;;;;;;123.45;63.08;;;;;;;2.68;88.66;97384.38;10418800;28;20063;-50
2023/12/06 20:41:03;;;;;;;109.05;53.78;;;;;;;2.61;88.74;97372.25;10409620;28;20060;-50
2023/12/06 20:46:06;;;;;;;106.28;55.20;;;;;;;2.46;88.29;97358.22;10408269;28;20173;-50
2023/12/06 20:51:06;;;;;;;117.60;54.95;;;;;;;2.59;88.48;97370.50;10407310;28;20473;-50
2023/12/06 20:56:05;;;;;;;118.80;55.58;;;;;;;2.45;88.38;97328.31;10408065;28;20055;-49
2023/12/06 21:01:04;;;;;;;;;;;;;;;2.89;88.13;97384.00;10408501;28;20064;-47
2023/12/06 21:06:06;;;;;;;125.78;55.47;;;;;;;2.75;88.63;97365.75;10408591;28;20358;-48
2023/12/06 21:11:06;;;;;;;135.43;69.07;;;;;;;2.80;87.99;97403.47;10408360;28;20078;-48
2023/12/06 21:16:08;;;;;;;126.78;63.47;;;;;;;2.42;88.58;97348.75;10392262;28;20530;-48
2023/12/06 21:21:08;;;;;;;138.50;69.95;;;;;;;2.93;87.74;97399.50;10366071;28;20072;-49
2023/12/06 21:26:07;;;;;;;113.30;55.95;;;;;;;2.66;88.00;97386.88;10367232;28;20075;-48
2023/12/06 21:31:06;;;;;;;93.95;48.92;;;;;;;2.23;88.61;97359.34;10366106;28;20159;-48
2023/12/06 21:36:05;;;;;;;83.57;43.63;;;;;;;1.86;89.15;97299.56;10366086;28;20032;-50
2023/12/06 21:41:04;;;;;;;;;;;;;;;2.41;88.97;97385.41;10366188;28;20569;-48
2023/12/06 21:46:03;;;;;;;87.50;40.05;;;;;;;1.95;88.48;97343.31;10365562;28;19955;-48
2023/12/06 21:51:03;;;;;;;;;;;;;;;2.12;88.76;97403.47;10365835;28;20060;-48
2023/12/06 21:56:02;;;;;;;63.93;28.40;;;;;;;1.93;88.99;97388.44;10364824;28;19951;-48
2023/12/06 22:01:01;;;;;;;96.72;42.38;;;;;;;1.96;89.04;97411.56;10365405;28;20064;-49
2023/12/06 22:06:00;;;;;;;90.85;40.13;;;;;;;2.00;89.04;97377.56;10366195;28;20044;-49
2023/12/06 22:10:59;;;;;;;85.45;36.92;;;;;;;1.74;88.79;97318.88;10365241;28;20559;-48
2023/12/06 22:15:58;;;;;;;98.05;43.30;;;;;;;1.79;88.78;97321.56;10369258;28;20057;-49
2023/12/06 22:20:57;;;;;;;99.60;46.05;;;;;;;2.28;88.62;97385.94;10373270;28;20157;-49
2023/12/06 22:25:56;;;;;;;103.80;47.17;;;;;;;2.30;88.75;97380.03;10373251;28;20037;-49
2023/12/06 22:30:55;;;;;;;103.68;48.47;;;;;;;2.43;88.83;97385.47;10373632;28;20479;-49
2023/12/06 22:35:54;;;;;;;107.22;48.67;;;;;;;2.04;89.01;97307.69;10372893;28;20120;-48
2023/12/06 22:40:53;;;;;;;;;;;;;;;2.44;88.86;97405.09;10372128;28;20072;-49
2023/12/06 22:45:53;;;;;;;87.28;40.17;;;;;;;2.21;88.42;97399.38;10372589;28;20017;-51
2023/12/06 22:50:52;;;;;;;98.40;44.80;;;;;;;1.85;89.67;97405.28;10367578;28;20130;-49
2023/12/06 22:55:51;;;;;;;101.85;44.72;;;;;;;1.49;89.95;97371.03;10371754;28;20025;-48
2023/12/06 23:00:50;;;;;;;100.95;44.45;;;;;;;1.69;89.76;97407.41;10370563;28;20119;-49